Time,TemperatureF,DewpointF,PressureIn,WindDirection,WindDirectionDegrees,WindSpeedMPH,WindSpeedGustMPH,Humidity,HourlyPrecipIn,Conditions,Clouds,dailyrainin,SolarRadiationWatts/m^2,SoftwareType,DateUTC
2013-03-21 00:06:00,67.2,63.0,29.85,West,263,15.0,-999.0,86,-99.99,,,0.00,0,weatherlink.com 1.10,2013-03-21 04:06:00,
2013-03-21 00:21:00,67.1,63.0,29.85,West,281,18.0,-999.0,87,-99.99,,,0.00,0,weatherlink.com 1.10,2013-03-21 04:21:00,
2013-03-21 00:36:00,66.8,63.0,29.84,West,274,15.0,-999.0,87,-99.99,,,0.00,0,weatherlink.com 1.10,2013-03-21 04:36:00,
2013-03-21 00:51:00,66.6,63.0,29.84,West,267,16.0,-999.0,87,-99.99,,,0.00,0,weatherlink.com 1.10,2013-03-21 04:51:00,
2013-03-21 01:06:00,66.4,63.0,29.84,WSW,248,20.0,-999.0,87,-99.99,,,0.00,0,weatherlink.com 1.10,2013-03-21 05:06:00,
2013-03-21 01:21:00,66.4,63.0,29.84,West,279,20.0,-999.0,87,-99.99,,,0.00,0,weatherlink.com 1.10,2013-03-21 05:21:00,
2013-03-21 01:36:00,66.2,62.0,29.84,West,274,20.0,-999.0,87,-99.99,,,0.00,0,weatherlink.com 1.10,2013-03-21 05:36:00,
2013-03-21 01:51:00,66.1,63.0,29.84,West,269,20.0,-999.0,88,-99.99,,,0.00,0,weatherlink.com 1.10,2013-03-21 05:51:00,
2013-03-21 02:06:00,66.0,63.0,29.84,West,271,14.0,-999.0,89,-99.99,,,0.00,0,weatherlink.com 1.10,2013-03-21 06:06:00,
2013-03-21 02:21:00,65.8,63.0,29.83,West,271,14.0,-999.0,89,-99.99,,,0.00,0,weatherlink.com 1.10,2013-03-21 06:21:00,
2013-03-21 02:36:00,65.6,62.0,29.84,West,262,13.0,-999.0,89,-99.99,,,0.00,0,weatherlink.com 1.10,2013-03-21 06:36:00,
2013-03-21 02:51:00,65.6,63.0,29.84,West,264,12.0,-999.0,90,-99.99,,,0.00,0,weatherlink.com 1.10,2013-03-21 06:51:00,
2013-03-21 03:06:00,65.4,63.0,29.83,West,274,13.0,-999.0,90,-99.99,,,0.00,0,weatherlink.com 1.10,2013-03-21 07:06:00,
2013-03-21 03:21:00,65.2,63.0,29.83,WSW,257,14.0,-999.0,91,-99.99,,,0.00,0,weatherlink.com 1.10,2013-03-21 07:21:00,
2013-03-21 03:36:00,65.2,63.0,29.84,WNW,285,10.0,-999.0,91,-99.99,,,0.00,0,weatherlink.com 1.10,2013-03-21 07:36:00,
2013-03-21 03:51:00,65.1,63.0,29.84,West,281,11.0,-999.0,91,-99.99,,,0.00,0,weatherlink.com 1.10,2013-03-21 07:51:00,
2013-03-21 04:06:00,65.4,63.0,29.84,WNW,284,14.0,-999.0,91,-99.99,,,0.00,0,weatherlink.com 1.10,2013-03-21 08:06:00,
2013-03-21 04:21:00,65.4,63.0,29.83,NW,304,16.0,-999.0,91,-99.99,,,0.00,0,weatherlink.com 1.10,2013-03-21 08:21:00,
2013-03-21 04:51:00,65.3,63.0,29.84,WNW,289,12.0,-999.0,91,-99.99,,,0.00,0,weatherlink.com 1.10,2013-03-21 08:51:00,
2013-03-21 05:06:00,65.0,62.0,29.84,WNW,287,13.0,-999.0,91,-99.99,,,0.00,0,weatherlink.com 1.10,2013-03-21 09:06:00,
2013-03-21 05:21:00,64.8,62.0,29.84,WNW,282,10.0,-999.0,91,-99.99,,,0.00,0,weatherlink.com 1.10,2013-03-21 09:21:00,
2013-03-21 05:36:00,64.8,63.0,29.85,WNW,292,13.0,-999.0,92,-99.99,,,0.00,0,weatherlink.com 1.10,2013-03-21 09:36:00,
2013-03-21 05:51:00,64.5,62.0,29.85,NW,311,14.0,-999.0,92,-99.99,,,0.00,0,weatherlink.com 1.10,2013-03-21 09:51:00,
2013-03-21 06:06:00,64.2,62.0,29.85,NW,309,13.0,-999.0,92,-99.99,,,0.00,0,weatherlink.com 1.10,2013-03-21 10:06:00,
2013-03-21 06:21:00,64.1,62.0,29.86,NW,308,19.0,-999.0,92,-99.99,,,0.00,0,weatherlink.com 1.10,2013-03-21 10:21:00,
2013-03-21 06:36:00,63.8,62.0,29.86,WNW,292,11.0,-999.0,92,-99.99,,,0.00,0,weatherlink.com 1.10,2013-03-21 10:36:00,
2013-03-21 07:06:00,63.2,61.0,29.87,NW,318,13.0,-999.0,91,-99.99,,,0.00,0,weatherlink.com 1.10,2013-03-21 11:06:00,
2013-03-21 07:21:00,62.7,60.0,29.88,NW,313,13.0,-999.0,90,-99.99,,,0.00,0,weatherlink.com 1.10,2013-03-21 11:21:00,
2013-03-21 07:36:00,62.3,59.0,29.89,NW,313,14.0,-999.0,90,-99.99,,,0.00,14,weatherlink.com 1.10,2013-03-21 11:36:00,
2013-03-21 07:51:00,62.2,59.0,29.89,WNW,302,14.0,-999.0,89,-99.99,,,0.00,53,weatherlink.com 1.10,2013-03-21 11:51:00,
2013-03-21 08:06:00,62.2,58.0,29.90,NW,309,14.0,-999.0,87,-99.99,,,0.00,111,weatherlink.com 1.10,2013-03-21 12:06:00,
2013-03-21 08:21:00,62.3,57.0,29.90,NW,323,11.0,-999.0,84,-99.99,,,0.00,181,weatherlink.com 1.10,2013-03-21 12:21:00,
2013-03-21 08:36:00,62.8,57.0,29.91,NW,304,10.0,-999.0,81,-99.99,,,0.00,178,weatherlink.com 1.10,2013-03-21 12:36:00,
2013-03-21 09:06:00,64.0,56.0,29.92,NW,304,12.0,-999.0,76,-99.99,,,0.00,390,weatherlink.com 1.10,2013-03-21 13:06:00,
2013-03-21 09:21:00,64.4,56.0,29.93,NW,315,9.0,-999.0,75,-99.99,,,0.00,443,weatherlink.com 1.10,2013-03-21 13:21:00,
2013-03-21 09:36:00,64.9,57.0,29.94,NW,305,11.0,-999.0,75,-99.99,,,0.00,503,weatherlink.com 1.10,2013-03-21 13:36:00,
2013-03-21 09:51:00,65.6,57.0,29.94,NW,313,10.0,-999.0,74,-99.99,,,0.00,561,weatherlink.com 1.10,2013-03-21 13:51:00,
2013-03-21 10:06:00,66.2,58.0,29.95,NNW,327,4.0,-999.0,74,-99.99,,,0.00,610,weatherlink.com 1.10,2013-03-21 14:06:00,
2013-03-21 10:21:00,67.4,58.0,29.95,NW,311,5.0,-999.0,72,-99.99,,,0.00,661,weatherlink.com 1.10,2013-03-21 14:21:00,
2013-03-21 10:36:00,69.0,59.0,29.95,NW,323,6.0,-999.0,71,-99.99,,,0.00,710,weatherlink.com 1.10,2013-03-21 14:36:00,
2013-03-21 10:51:00,69.9,59.0,29.95,WNW,301,5.0,-999.0,68,-99.99,,,0.00,756,weatherlink.com 1.10,2013-03-21 14:51:00,
2013-03-21 11:06:00,70.4,59.0,29.94,NNE,17,6.0,-999.0,67,-99.99,,,0.00,789,weatherlink.com 1.10,2013-03-21 15:06:00,
2013-03-21 11:21:00,71.5,59.0,29.94,NE,39,4.0,-999.0,65,-99.99,,,0.00,826,weatherlink.com 1.10,2013-03-21 15:21:00,
2013-03-21 11:36:00,71.8,59.0,29.93,NE,42,6.0,-999.0,65,-99.99,,,0.00,856,weatherlink.com 1.10,2013-03-21 15:36:00,
2013-03-21 11:52:00,71.9,59.0,29.94,North,360,7.0,-999.0,65,-99.99,,,0.00,884,weatherlink.com 1.10,2013-03-21 15:52:00,
2013-03-21 12:06:00,72.0,58.0,29.93,NNE,12,11.0,-999.0,62,-99.99,,,0.00,904,weatherlink.com 1.10,2013-03-21 16:06:00,
2013-03-21 12:21:00,72.2,57.0,29.94,NE,48,7.0,-999.0,60,-99.99,,,0.00,925,weatherlink.com 1.10,2013-03-21 16:21:00,
2013-03-21 12:36:00,72.3,57.0,29.93,NNE,20,7.0,-999.0,59,-99.99,,,0.00,939,weatherlink.com 1.10,2013-03-21 16:36:00,
2013-03-21 12:51:00,72.6,58.0,29.92,NE,42,9.0,-999.0,60,-99.99,,,0.00,949,weatherlink.com 1.10,2013-03-21 16:51:00,
2013-03-21 13:06:00,73.0,56.0,29.92,NE,42,12.0,-999.0,56,-99.99,,,0.00,986,weatherlink.com 1.10,2013-03-21 17:06:00,
2013-03-21 13:22:00,72.8,56.0,29.92,NE,44,11.0,-999.0,56,-99.99,,,0.00,979,weatherlink.com 1.10,2013-03-21 17:22:00,
2013-03-21 13:36:00,73.2,57.0,29.91,NNE,16,11.0,-999.0,58,-99.99,,,0.00,960,weatherlink.com 1.10,2013-03-21 17:36:00,
2013-03-21 13:51:00,73.5,57.0,29.91,NNE,21,16.0,-999.0,57,-99.99,,,0.00,953,weatherlink.com 1.10,2013-03-21 17:51:00,
2013-03-21 14:06:00,73.2,57.0,29.90,ENE,60,10.0,-999.0,57,-99.99,,,0.00,939,weatherlink.com 1.10,2013-03-21 18:06:00,
2013-03-21 14:21:00,72.9,57.0,29.90,NE,38,14.0,-999.0,57,-99.99,,,0.00,928,weatherlink.com 1.10,2013-03-21 18:21:00,
2013-03-21 14:36:00,72.9,56.0,29.90,NNE,14,10.0,-999.0,55,-99.99,,,0.00,907,weatherlink.com 1.10,2013-03-21 18:36:00,
2013-03-21 14:51:00,72.9,56.0,29.90,NE,50,16.0,-999.0,55,-99.99,,,0.00,886,weatherlink.com 1.10,2013-03-21 18:51:00,
2013-03-21 15:06:00,72.5,57.0,29.89,North,355,15.0,-999.0,58,-99.99,,,0.00,858,weatherlink.com 1.10,2013-03-21 19:06:00,
2013-03-21 15:21:00,72.5,56.0,29.88,NNE,24,16.0,-999.0,56,-99.99,,,0.00,823,weatherlink.com 1.10,2013-03-21 19:21:00,
2013-03-21 15:36:00,72.7,56.0,29.88,NNE,17,16.0,-999.0,57,-99.99,,,0.00,789,weatherlink.com 1.10,2013-03-21 19:36:00,
2013-03-21 16:06:00,71.9,55.0,29.89,NE,34,11.0,-999.0,55,-99.99,,,0.00,701,weatherlink.com 1.10,2013-03-21 20:06:00,
2013-03-21 16:21:00,71.7,55.0,29.88,North,355,10.0,-999.0,55,-99.99,,,0.00,654,weatherlink.com 1.10,2013-03-21 20:21:00,
2013-03-21 16:36:00,72.0,54.0,29.89,NNE,30,7.0,-999.0,54,-99.99,,,0.00,610,weatherlink.com 1.10,2013-03-21 20:36:00,
2013-03-21 16:51:00,71.7,54.0,29.89,NNE,28,12.0,-999.0,53,-99.99,,,0.00,552,weatherlink.com 1.10,2013-03-21 20:51:00,
2013-03-21 17:06:00,71.0,53.0,29.89,NNE,24,15.0,-999.0,54,-99.99,,,0.00,497,weatherlink.com 1.10,2013-03-21 21:06:00,
2013-03-21 17:22:00,70.3,54.0,29.89,NNE,25,10.0,-999.0,56,-99.99,,,0.00,443,weatherlink.com 1.10,2013-03-21 21:22:00,
2013-03-21 17:36:00,69.9,53.0,29.89,NNE,30,10.0,-999.0,56,-99.99,,,0.00,381,weatherlink.com 1.10,2013-03-21 21:36:00,
2013-03-21 17:51:00,69.6,53.0,29.89,NE,38,11.0,-999.0,56,-99.99,,,0.00,316,weatherlink.com 1.10,2013-03-21 21:51:00,
2013-03-21 18:21:00,68.7,52.0,29.90,NE,45,10.0,-999.0,56,-99.99,,,0.00,204,weatherlink.com 1.10,2013-03-21 22:21:00,
2013-03-21 18:36:00,68.3,51.0,29.91,NE,39,8.0,-999.0,54,-99.99,,,0.00,142,weatherlink.com 1.10,2013-03-21 22:36:00,
2013-03-21 18:51:00,68.1,51.0,29.91,NE,43,5.0,-999.0,55,-99.99,,,0.00,81,weatherlink.com 1.10,2013-03-21 22:51:00,
2013-03-21 19:06:00,67.8,51.0,29.91,NE,43,4.0,-999.0,55,-99.99,,,0.00,37,weatherlink.com 1.10,2013-03-21 23:06:00,
2013-03-21 19:21:00,67.7,51.0,29.91,NE,53,1.0,-999.0,55,-99.99,,,0.00,14,weatherlink.com 1.10,2013-03-21 23:21:00,
2013-03-21 19:36:00,67.5,52.0,29.92,East,90,0.0,-999.0,57,-99.99,,,0.00,0,weatherlink.com 1.10,2013-03-21 23:36:00,
2013-03-21 19:52:00,66.9,51.0,29.92,NE,36,0.0,-999.0,58,-99.99,,,0.00,0,weatherlink.com 1.10,2013-03-21 23:52:00,
2013-03-21 20:06:00,66.2,51.0,29.92,NE,52,0.0,-999.0,58,-99.99,,,0.00,0,weatherlink.com 1.10,2013-03-22 00:06:00,
2013-03-21 20:21:00,66.0,54.0,29.92,NE,52,0.0,-999.0,65,-99.99,,,0.00,0,weatherlink.com 1.10,2013-03-22 00:21:00,
2013-03-21 20:36:00,65.6,56.0,29.93,NE,49,0.0,-999.0,70,-99.99,,,0.06,0,weatherlink.com 1.10,2013-03-22 00:36:00,
2013-03-21 20:51:00,64.4,54.0,29.93,ENE,60,0.0,-999.0,70,-99.99,,,0.06,0,weatherlink.com 1.10,2013-03-22 00:51:00,
2013-03-21 21:06:00,63.4,54.0,29.93,ENE,63,0.0,-999.0,72,-99.99,,,0.06,0,weatherlink.com 1.10,2013-03-22 01:06:00,
2013-03-21 21:21:00,62.6,54.0,29.93,ENE,74,0.0,-999.0,73,-99.99,,,0.06,0,weatherlink.com 1.10,2013-03-22 01:21:00,
2013-03-21 21:36:00,62.2,53.0,29.94,ESE,116,0.0,-999.0,73,-99.99,,,0.06,0,weatherlink.com 1.10,2013-03-22 01:36:00,
2013-03-21 21:51:00,62.1,54.0,29.95,ESE,119,0.0,-999.0,74,-99.99,,,0.06,0,weatherlink.com 1.10,2013-03-22 01:51:00,
2013-03-21 22:06:00,61.9,53.0,29.95,East,101,0.0,-999.0,73,-99.99,,,0.06,0,weatherlink.com 1.10,2013-03-22 02:06:00,
2013-03-21 22:21:00,61.9,53.0,29.95,East,101,0.0,-999.0,73,-99.99,,,0.06,0,weatherlink.com 1.10,2013-03-22 02:21:00,
2013-03-21 22:36:00,62.0,53.0,29.96,SE,140,0.0,-999.0,73,-99.99,,,0.06,0,weatherlink.com 1.10,2013-03-22 02:36:00,
2013-03-21 22:51:00,62.5,55.0,29.95,SE,140,0.0,-999.0,75,-99.99,,,0.06,0,weatherlink.com 1.10,2013-03-22 02:51:00,
2013-03-21 23:06:00,62.6,55.0,29.95,SE,140,0.0,-999.0,75,-99.99,,,0.06,0,weatherlink.com 1.10,2013-03-22 03:06:00,
2013-03-21 23:21:00,62.5,55.0,29.95,SE,140,0.0,-999.0,76,-99.99,,,0.06,0,weatherlink.com 1.10,2013-03-22 03:21:00,
2013-03-21 23:36:00,62.3,54.0,29.95,SE,138,0.0,-999.0,75,-99.99,,,0.06,0,weatherlink.com 1.10,2013-03-22 03:36:00,
2013-03-21 23:51:00,62.5,55.0,29.95,SE,138,0.0,-999.0,76,-99.99,,,0.06,0,weatherlink.com 1.10,2013-03-22 03:51:00,